sensor_id;sensor_type;location;lat;lon;timestamp;P1;durP1;ratioP1;P2;durP2;ratioP2
1010;SDS011;494;48.744;10.106;2023-04-15T07:21:39;19.80;;;6.83;;
1010;SDS011;494;48.744;10.106;2023-04-15T07:24:09;14.50;;;6.57;;
1010;SDS011;494;48.744;10.106;2023-04-15T07:26:43;14.03;;;11.10;;
1010;SDS011;494;48.744;10.106;2023-04-15T07:29:14;16.30;;;12.17;;
1010;SDS011;494;48.744;10.106;2023-04-15T07:31:43;14.30;;;10.77;;
1010;SDS011;494;48.744;10.106;2023-04-15T07:34:13;14.87;;;7.40;;
1010;SDS011;494;48.744;10.106;2023-04-15T07:36:45;16.10;;;7.23;;
1010;SDS011;494;48.744;10.106;2023-04-15T07:39:16;15.70;;;9.50;;
1010;SDS011;494;48.744;10.106;2023-04-15T07:41:45;14.20;;;11.03;;
1010;SDS011;494;48.744;10.106;2023-04-15T07:44:14;16.13;;;11.90;;
1010;SDS011;494;48.744;10.106;2023-04-15T07:46:44;16.97;;;7.80;;
1010;SDS011;494;48.744;10.106;2023-04-15T07:49:13;16.83;;;8.83;;
1010;SDS011;494;48.744;10.106;2023-04-15T07:51:41;14.87;;;7.40;;
1010;SDS011;494;48.744;10.106;2023-04-15T07:54:12;15.50;;;6.87;;
1010;SDS011;494;48.744;10.106;2023-04-15T07:56:42;12.00;;;5.50;;
1010;SDS011;494;48.744;10.106;2023-04-15T07:59:11;12.07;;;4.60;;
1010;SDS011;494;48.744;10.106;2023-04-15T08:01:41;11.80;;;3.93;;
1010;SDS011;494;48.744;10.106;2023-04-15T08:04:11;11.17;;;3.93;;
1010;SDS011;494;48.744;10.106;2023-04-15T08:06:42;11.60;;;3.70;;
1010;SDS011;494;48.744;10.106;2023-04-15T08:09:16;13.60;;;6.80;;
1010;SDS011;494;48.744;10.106;2023-04-15T08:11:47;13.10;;;5.60;;
1010;SDS011;494;48.744;10.106;2023-04-15T08:14:16;17.20;;;4.93;;
1010;SDS011;494;48.744;10.106;2023-04-15T08:16:46;11.77;;;4.00;;
1010;SDS011;494;48.744;10.106;2023-04-15T08:19:17;13.60;;;4.07;;
1010;SDS011;494;48.744;10.106;2023-04-15T08:21:48;10.50;;;4.10;;
1010;SDS011;494;48.744;10.106;2023-04-15T08:24:28;13.50;;;5.77;;
1010;SDS011;494;48.744;10.106;2023-04-15T08:27:04;12.40;;;4.80;;
1010;SDS011;494;48.744;10.106;2023-04-15T08:29:33;11.20;;;4.37;;
1010;SDS011;494;48.744;10.106;2023-04-15T08:32:03;13.13;;;5.10;;
1010;SDS011;494;48.744;10.106;2023-04-15T08:34:35;11.80;;;4.37;;
1010;SDS011;494;48.744;10.106;2023-04-15T08:37:04;13.23;;;5.47;;
1010;SDS011;494;48.744;10.106;2023-04-15T08:39:35;11.57;;;4.20;;
1010;SDS011;494;48.744;10.106;2023-04-15T08:42:05;14.50;;;6.27;;
1010;SDS011;494;48.744;10.106;2023-04-15T08:44:41;15.10;;;6.20;;
1010;SDS011;494;48.744;10.106;2023-04-15T08:47:15;13.33;;;6.13;;
1010;SDS011;494;48.744;10.106;2023-04-15T08:49:52;10.17;;;4.33;;
1010;SDS011;494;48.744;10.106;2023-04-15T08:52:25;12.20;;;4.77;;
1010;SDS011;494;48.744;10.106;2023-04-15T08:54:56;10.70;;;4.50;;
1010;SDS011;494;48.744;10.106;2023-04-15T08:57:28;12.10;;;5.00;;
1010;SDS011;494;48.744;10.106;2023-04-15T08:59:58;10.97;;;4.70;;
1010;SDS011;494;48.744;10.106;2023-04-15T09:02:31;12.30;;;6.10;;
1010;SDS011;494;48.744;10.106;2023-04-15T09:05:00;11.53;;;5.17;;
1010;SDS011;494;48.744;10.106;2023-04-15T09:07:32;12.17;;;4.97;;
1010;SDS011;494;48.744;10.106;2023-04-15T09:10:05;10.10;;;4.77;;
1010;SDS011;494;48.744;10.106;2023-04-15T09:12:35;11.90;;;5.27;;
1010;SDS011;494;48.744;10.106;2023-04-15T09:15:05;12.10;;;5.07;;
1010;SDS011;494;48.744;10.106;2023-04-15T09:17:41;13.13;;;4.73;;
1010;SDS011;494;48.744;10.106;2023-04-15T09:20:11;14.43;;;5.30;;
1010;SDS011;494;48.744;10.106;2023-04-15T09:22:48;12.60;;;4.80;;
1010;SDS011;494;48.744;10.106;2023-04-15T09:25:31;12.50;;;5.60;;
1010;SDS011;494;48.744;10.106;2023-04-15T09:28:00;13.63;;;6.77;;
1010;SDS011;494;48.744;10.106;2023-04-15T09:30:32;12.60;;;5.80;;
1010;SDS011;494;48.744;10.106;2023-04-15T09:33:03;12.50;;;5.73;;
1010;SDS011;494;48.744;10.106;2023-04-15T09:35:34;13.30;;;6.27;;
1010;SDS011;494;48.744;10.106;2023-04-15T09:38:04;13.50;;;6.53;;
1010;SDS011;494;48.744;10.106;2023-04-15T09:40:38;13.83;;;6.20;;
1010;SDS011;494;48.744;10.106;2023-04-15T09:43:08;13.57;;;6.37;;
1010;SDS011;494;48.744;10.106;2023-04-15T09:45:40;11.20;;;5.37;;
1010;SDS011;494;48.744;10.106;2023-04-15T09:48:18;16.60;;;6.40;;
1010;SDS011;494;48.744;10.106;2023-04-15T09:50:51;16.63;;;7.10;;
1010;SDS011;494;48.744;10.106;2023-04-15T09:53:21;13.23;;;6.57;;
1010;SDS011;494;48.744;10.106;2023-04-15T09:56:09;13.43;;;6.73;;
1010;SDS011;494;48.744;10.106;2023-04-15T09:58:38;13.67;;;6.27;;
1010;SDS011;494;48.744;10.106;2023-04-15T10:01:08;14.10;;;6.60;;
1010;SDS011;494;48.744;10.106;2023-04-15T10:03:37;13.87;;;7.80;;
1010;SDS011;494;48.744;10.106;2023-04-15T10:06:10;14.87;;;7.77;;
1010;SDS011;494;48.744;10.106;2023-04-15T10:08:41;12.97;;;6.87;;
1010;SDS011;494;48.744;10.106;2023-04-15T10:11:16;16.63;;;7.23;;
1010;SDS011;494;48.744;10.106;2023-04-15T10:13:48;13.13;;;6.27;;
1010;SDS011;494;48.744;10.106;2023-04-15T10:16:19;13.37;;;6.20;;
1010;SDS011;494;48.744;10.106;2023-04-15T10:18:50;14.37;;;6.23;;
1010;SDS011;494;48.744;10.106;2023-04-15T10:21:25;13.40;;;6.57;;
1010;SDS011;494;48.744;10.106;2023-04-15T10:23:57;14.57;;;6.20;;
1010;SDS011;494;48.744;10.106;2023-04-15T10:26:31;14.37;;;6.27;;
1010;SDS011;494;48.744;10.106;2023-04-15T10:29:11;14.13;;;6.80;;
1010;SDS011;494;48.744;10.106;2023-04-15T10:31:42;14.90;;;6.13;;
1010;SDS011;494;48.744;10.106;2023-04-15T10:44:11;14.33;;;5.93;;
1010;SDS011;494;48.744;10.106;2023-04-15T10:50:32;15.37;;;6.57;;
1010;SDS011;494;48.744;10.106;2023-04-15T10:53:20;13.90;;;6.50;;
1010;SDS011;494;48.744;10.106;2023-04-15T10:56:03;14.50;;;7.77;;
1010;SDS011;494;48.744;10.106;2023-04-15T10:58:40;13.47;;;7.33;;
1010;SDS011;494;48.744;10.106;2023-04-15T11:19:03;15.20;;;7.90;;
1010;SDS011;494;48.744;10.106;2023-04-15T11:22:12;13.10;;;6.90;;
1010;SDS011;494;48.744;10.106;2023-04-15T11:24:55;12.93;;;5.70;;
1010;SDS011;494;48.744;10.106;2023-04-15T11:27:46;13.53;;;6.03;;
1010;SDS011;494;48.744;10.106;2023-04-15T11:30:17;12.50;;;5.50;;
1010;SDS011;494;48.744;10.106;2023-04-15T11:32:50;11.90;;;5.87;;
1010;SDS011;494;48.744;10.106;2023-04-15T11:35:41;13.10;;;5.83;;
1010;SDS011;494;48.744;10.106;2023-04-15T11:38:11;13.40;;;5.90;;
1010;SDS011;494;48.744;10.106;2023-04-15T11:40:43;12.33;;;6.43;;
1010;SDS011;494;48.744;10.106;2023-04-15T11:43:13;13.90;;;7.30;;
1010;SDS011;494;48.744;10.106;2023-04-15T11:45:47;16.20;;;6.93;;
1010;SDS011;494;48.744;10.106;2023-04-15T11:48:22;14.00;;;7.13;;
1010;SDS011;494;48.744;10.106;2023-04-15T11:50:56;12.90;;;6.20;;
1010;SDS011;494;48.744;10.106;2023-04-15T11:56:32;15.87;;;6.70;;
1010;SDS011;494;48.744;10.106;2023-04-15T12:14:29;14.23;;;6.20;;
1010;SDS011;494;48.744;10.106;2023-04-15T12:17:00;13.63;;;6.27;;
1010;SDS011;494;48.744;10.106;2023-04-15T12:19:33;11.60;;;5.77;;
1010;SDS011;494;48.744;10.106;2023-04-15T12:23:26;10.93;;;4.57;;
1010;SDS011;494;48.744;10.106;2023-04-15T12:45:35;9.43;;;3.90;;
1010;SDS011;494;48.744;10.106;2023-04-15T12:49:22;10.67;;;4.23;;
1010;SDS011;494;48.744;10.106;2023-04-15T12:55:24;10.30;;;3.40;;
1010;SDS011;494;48.744;10.106;2023-04-15T12:58:29;9.70;;;3.47;;
1010;SDS011;494;48.744;10.106;2023-04-15T13:12:47;8.47;;;2.97;;
1010;SDS011;494;48.744;10.106;2023-04-15T13:23:04;9.17;;;3.70;;
1010;SDS011;494;48.744;10.106;2023-04-15T13:25:38;9.23;;;3.63;;
1010;SDS011;494;48.744;10.106;2023-04-15T13:28:20;10.03;;;4.10;;
1010;SDS011;494;48.744;10.106;2023-04-15T13:31:37;11.50;;;4.40;;
1010;SDS011;494;48.744;10.106;2023-04-15T13:34:08;9.17;;;3.90;;
1010;SDS011;494;48.744;10.106;2023-04-15T13:36:42;9.50;;;3.90;;
1010;SDS011;494;48.744;10.106;2023-04-15T13:39:15;10.73;;;4.53;;
1010;SDS011;494;48.744;10.106;2023-04-15T13:50:18;10.23;;;4.00;;
1010;SDS011;494;48.744;10.106;2023-04-15T13:52:51;9.80;;;3.47;;
1010;SDS011;494;48.744;10.106;2023-04-15T13:55:32;13.60;;;5.57;;
1010;SDS011;494;48.744;10.106;2023-04-15T13:58:03;10.00;;;3.30;;
1010;SDS011;494;48.744;10.106;2023-04-15T14:00:38;10.77;;;3.20;;
1010;SDS011;494;48.744;10.106;2023-04-15T14:03:31;9.23;;;3.47;;
1010;SDS011;494;48.744;10.106;2023-04-15T14:06:04;9.43;;;4.03;;
1010;SDS011;494;48.744;10.106;2023-04-15T14:08:34;9.40;;;2.97;;
1010;SDS011;494;48.744;10.106;2023-04-15T14:11:03;7.90;;;2.60;;
1010;SDS011;494;48.744;10.106;2023-04-15T14:13:33;8.77;;;2.60;;
1010;SDS011;494;48.744;10.106;2023-04-15T14:16:07;8.30;;;2.93;;
1010;SDS011;494;48.744;10.106;2023-04-15T14:18:36;8.10;;;2.40;;
1010;SDS011;494;48.744;10.106;2023-04-15T14:21:07;7.90;;;2.30;;
1010;SDS011;494;48.744;10.106;2023-04-15T14:23:41;9.83;;;3.87;;
1010;SDS011;494;48.744;10.106;2023-04-15T14:26:14;10.10;;;3.57;;
1010;SDS011;494;48.744;10.106;2023-04-15T14:28:44;11.00;;;3.70;;
1010;SDS011;494;48.744;10.106;2023-04-15T14:31:18;13.50;;;3.33;;
1010;SDS011;494;48.744;10.106;2023-04-15T14:33:47;14.23;;;5.23;;
1010;SDS011;494;48.744;10.106;2023-04-15T14:36:19;8.33;;;2.73;;
1010;SDS011;494;48.744;10.106;2023-04-15T14:38:48;10.03;;;2.50;;
1010;SDS011;494;48.744;10.106;2023-04-15T14:41:16;8.93;;;1.97;;
1010;SDS011;494;48.744;10.106;2023-04-15T14:43:49;8.83;;;2.10;;
1010;SDS011;494;48.744;10.106;2023-04-15T14:46:19;8.37;;;2.80;;
1010;SDS011;494;48.744;10.106;2023-04-15T14:48:58;11.03;;;2.40;;
1010;SDS011;494;48.744;10.106;2023-04-15T14:55:40;7.97;;;2.60;;
1010;SDS011;494;48.744;10.106;2023-04-15T14:58:40;7.80;;;2.43;;
1010;SDS011;494;48.744;10.106;2023-04-15T15:01:28;9.13;;;2.40;;
1010;SDS011;494;48.744;10.106;2023-04-15T15:03:57;11.07;;;2.40;;
1010;SDS011;494;48.744;10.106;2023-04-15T15:06:27;7.80;;;2.20;;
1010;SDS011;494;48.744;10.106;2023-04-15T15:09:00;8.47;;;2.87;;
1010;SDS011;494;48.744;10.106;2023-04-15T15:11:41;9.27;;;2.90;;
1010;SDS011;494;48.744;10.106;2023-04-15T15:14:17;8.13;;;2.40;;
1010;SDS011;494;48.744;10.106;2023-04-15T15:16:55;9.47;;;3.10;;
1010;SDS011;494;48.744;10.106;2023-04-15T15:19:33;8.57;;;2.70;;
1010;SDS011;494;48.744;10.106;2023-04-15T15:23:01;8.13;;;2.90;;
1010;SDS011;494;48.744;10.106;2023-04-15T15:31:33;11.93;;;4.13;;
1010;SDS011;494;48.744;10.106;2023-04-15T15:34:12;14.83;;;6.20;;
1010;SDS011;494;48.744;10.106;2023-04-15T15:36:55;9.70;;;3.30;;
1010;SDS011;494;48.744;10.106;2023-04-15T15:39:25;10.67;;;4.27;;
1010;SDS011;494;48.744;10.106;2023-04-15T15:41:58;8.10;;;3.10;;
1010;SDS011;494;48.744;10.106;2023-04-15T15:44:30;9.03;;;4.17;;
1010;SDS011;494;48.744;10.106;2023-04-15T15:47:04;9.00;;;4.00;;
1010;SDS011;494;48.744;10.106;2023-04-15T15:49:36;7.00;;;2.20;;
1010;SDS011;494;48.744;10.106;2023-04-15T15:52:06;8.90;;;3.20;;
1010;SDS011;494;48.744;10.106;2023-04-15T15:54:48;9.90;;;2.17;;
1010;SDS011;494;48.744;10.106;2023-04-15T15:57:49;7.57;;;3.70;;
1010;SDS011;494;48.744;10.106;2023-04-15T16:03:33;9.40;;;7.70;;
1010;SDS011;494;48.744;10.106;2023-04-15T16:06:04;7.40;;;3.30;;
1010;SDS011;494;48.744;10.106;2023-04-15T16:08:32;7.53;;;3.10;;
1010;SDS011;494;48.744;10.106;2023-04-15T16:11:19;8.07;;;2.60;;
1010;SDS011;494;48.744;10.106;2023-04-15T16:14:01;7.07;;;2.53;;
1010;SDS011;494;48.744;10.106;2023-04-15T16:16:33;9.00;;;3.30;;
1010;SDS011;494;48.744;10.106;2023-04-15T16:19:01;8.57;;;3.10;;
1010;SDS011;494;48.744;10.106;2023-04-15T16:21:51;8.27;;;2.87;;
1010;SDS011;494;48.744;10.106;2023-04-15T16:24:20;8.07;;;3.43;;
1010;SDS011;494;48.744;10.106;2023-04-15T16:26:48;8.20;;;2.93;;
1010;SDS011;494;48.744;10.106;2023-04-15T16:29:17;7.40;;;2.80;;
1010;SDS011;494;48.744;10.106;2023-04-15T16:31:47;10.07;;;3.80;;
1010;SDS011;494;48.744;10.106;2023-04-15T16:34:20;9.83;;;4.20;;
1010;SDS011;494;48.744;10.106;2023-04-15T16:36:49;8.20;;;3.60;;
1010;SDS011;494;48.744;10.106;2023-04-15T16:39:21;8.23;;;3.80;;
1010;SDS011;494;48.744;10.106;2023-04-15T16:41:52;10.90;;;3.60;;
1010;SDS011;494;48.744;10.106;2023-04-15T16:44:24;9.60;;;4.57;;
1010;SDS011;494;48.744;10.106;2023-04-15T16:46:58;9.70;;;4.30;;
1010;SDS011;494;48.744;10.106;2023-04-15T16:49:30;13.50;;;5.20;;
1010;SDS011;494;48.744;10.106;2023-04-15T16:52:00;12.73;;;6.47;;
1010;SDS011;494;48.744;10.106;2023-04-15T16:54:29;13.90;;;7.83;;
1010;SDS011;494;48.744;10.106;2023-04-15T16:57:00;18.50;;;10.60;;
1010;SDS011;494;48.744;10.106;2023-04-15T16:59:31;11.27;;;5.90;;
1010;SDS011;494;48.744;10.106;2023-04-15T17:02:35;14.63;;;8.00;;
1010;SDS011;494;48.744;10.106;2023-04-15T17:05:04;10.27;;;6.00;;
1010;SDS011;494;48.744;10.106;2023-04-15T17:07:34;9.60;;;4.70;;
1010;SDS011;494;48.744;10.106;2023-04-15T17:10:03;9.60;;;5.30;;
1010;SDS011;494;48.744;10.106;2023-04-15T17:12:34;10.40;;;5.20;;
1010;SDS011;494;48.744;10.106;2023-04-15T17:15:03;9.90;;;5.00;;
1010;SDS011;494;48.744;10.106;2023-04-15T17:17:34;9.27;;;4.63;;
1010;SDS011;494;48.744;10.106;2023-04-15T17:20:04;10.53;;;3.57;;
1010;SDS011;494;48.744;10.106;2023-04-15T17:22:33;8.77;;;3.70;;
1010;SDS011;494;48.744;10.106;2023-04-15T17:25:03;10.20;;;4.40;;
1010;SDS011;494;48.744;10.106;2023-04-15T17:27:33;8.77;;;3.43;;
1010;SDS011;494;48.744;10.106;2023-04-15T17:30:06;11.30;;;3.97;;
1010;SDS011;494;48.744;10.106;2023-04-15T17:32:37;10.43;;;4.93;;
1010;SDS011;494;48.744;10.106;2023-04-15T17:35:07;11.50;;;6.73;;
1010;SDS011;494;48.744;10.106;2023-04-15T17:37:36;10.00;;;5.37;;
1010;SDS011;494;48.744;10.106;2023-04-15T17:40:05;9.40;;;5.97;;
1010;SDS011;494;48.744;10.106;2023-04-15T17:42:35;9.47;;;6.10;;
1010;SDS011;494;48.744;10.106;2023-04-15T17:45:04;8.77;;;4.90;;
1010;SDS011;494;48.744;10.106;2023-04-15T17:47:34;10.20;;;5.83;;
1010;SDS011;494;48.744;10.106;2023-04-15T17:50:06;9.27;;;5.17;;
1010;SDS011;494;48.744;10.106;2023-04-15T17:52:36;8.87;;;4.60;;
1010;SDS011;494;48.744;10.106;2023-04-15T17:55:05;9.70;;;6.00;;
1010;SDS011;494;48.744;10.106;2023-04-15T17:57:35;10.20;;;5.40;;
1010;SDS011;494;48.744;10.106;2023-04-15T18:00:04;9.60;;;5.40;;
1010;SDS011;494;48.744;10.106;2023-04-15T18:02:38;10.37;;;4.70;;
1010;SDS011;494;48.744;10.106;2023-04-15T18:05:09;10.07;;;5.43;;
1010;SDS011;494;48.744;10.106;2023-04-15T18:07:38;11.90;;;6.23;;
1010;SDS011;494;48.744;10.106;2023-04-15T18:10:07;10.20;;;6.00;;
1010;SDS011;494;48.744;10.106;2023-04-15T18:12:37;9.67;;;5.40;;
1010;SDS011;494;48.744;10.106;2023-04-15T18:15:06;10.63;;;5.77;;
1010;SDS011;494;48.744;10.106;2023-04-15T18:17:37;10.97;;;6.53;;
1010;SDS011;494;48.744;10.106;2023-04-15T18:20:09;11.43;;;7.27;;
1010;SDS011;494;48.744;10.106;2023-04-15T18:22:41;9.93;;;6.90;;
1010;SDS011;494;48.744;10.106;2023-04-15T18:25:23;10.30;;;7.07;;
1010;SDS011;494;48.744;10.106;2023-04-15T18:28:18;10.20;;;7.10;;
1010;SDS011;494;48.744;10.106;2023-04-15T18:30:52;10.77;;;7.20;;
1010;SDS011;494;48.744;10.106;2023-04-15T18:33:34;7.43;;;2.83;;
1010;SDS011;494;48.744;10.106;2023-04-15T18:36:19;7.80;;;3.40;;
1010;SDS011;494;48.744;10.106;2023-04-15T18:38:48;8.50;;;3.43;;
1010;SDS011;494;48.744;10.106;2023-04-15T18:41:19;9.63;;;3.60;;
1010;SDS011;494;48.744;10.106;2023-04-15T18:43:50;8.90;;;3.73;;
1010;SDS011;494;48.744;10.106;2023-04-15T18:46:26;8.17;;;3.83;;
1010;SDS011;494;48.744;10.106;2023-04-15T18:48:56;9.03;;;4.00;;
1010;SDS011;494;48.744;10.106;2023-04-15T18:51:32;12.37;;;6.63;;
1010;SDS011;494;48.744;10.106;2023-04-15T18:54:02;11.10;;;5.83;;
1010;SDS011;494;48.744;10.106;2023-04-15T18:56:32;16.07;;;10.47;;
1010;SDS011;494;48.744;10.106;2023-04-15T18:59:02;11.40;;;7.00;;
1010;SDS011;494;48.744;10.106;2023-04-15T19:01:53;17.17;;;10.70;;
1010;SDS011;494;48.744;10.106;2023-04-15T19:04:24;26.27;;;17.53;;
1010;SDS011;494;48.744;10.106;2023-04-15T19:06:56;10.77;;;6.00;;
1010;SDS011;494;48.744;10.106;2023-04-15T19:10:04;10.27;;;5.27;;
1010;SDS011;494;48.744;10.106;2023-04-15T19:12:34;9.53;;;4.53;;
1010;SDS011;494;48.744;10.106;2023-04-15T19:15:06;19.30;;;11.97;;
1010;SDS011;494;48.744;10.106;2023-04-15T19:17:37;11.13;;;5.80;;
1010;SDS011;494;48.744;10.106;2023-04-15T19:20:25;13.70;;;6.07;;
1010;SDS011;494;48.744;10.106;2023-04-15T19:22:57;13.57;;;8.57;;
1010;SDS011;494;48.744;10.106;2023-04-15T19:25:30;10.20;;;5.20;;
1010;SDS011;494;48.744;10.106;2023-04-15T19:28:00;7.93;;;3.10;;
1010;SDS011;494;48.744;10.106;2023-04-15T19:30:55;10.03;;;5.70;;
1010;SDS011;494;48.744;10.106;2023-04-15T19:33:53;8.27;;;3.50;;
1010;SDS011;494;48.744;10.106;2023-04-15T19:36:25;12.23;;;6.67;;
1010;SDS011;494;48.744;10.106;2023-04-15T19:43:45;13.83;;;12.43;;
1010;SDS011;494;48.744;10.106;2023-04-15T20:34:04;21.03;;;19.23;;
1010;SDS011;494;48.744;10.106;2023-04-15T20:36:46;21.00;;;19.10;;
1010;SDS011;494;48.744;10.106;2023-04-15T20:39:25;22.80;;;20.70;;
1010;SDS011;494;48.744;10.106;2023-04-15T20:42:22;21.93;;;20.03;;
1010;SDS011;494;48.744;10.106;2023-04-15T20:45:03;24.07;;;21.77;;
1010;SDS011;494;48.744;10.106;2023-04-15T20:47:43;23.50;;;21.40;;
1010;SDS011;494;48.744;10.106;2023-04-15T21:02:12;26.90;;;24.20;;
1010;SDS011;494;48.744;10.106;2023-04-15T21:13:13;22.70;;;20.60;;
1010;SDS011;494;48.744;10.106;2023-04-15T21:16:35;21.90;;;20.00;;
1010;SDS011;494;48.744;10.106;2023-04-15T21:19:25;20.97;;;19.17;;
1010;SDS011;494;48.744;10.106;2023-04-15T21:22:31;22.90;;;20.97;;
1010;SDS011;494;48.744;10.106;2023-04-15T21:25:29;23.80;;;21.80;;
1010;SDS011;494;48.744;10.106;2023-04-15T21:28:01;20.60;;;18.90;;
1010;SDS011;494;48.744;10.106;2023-04-15T21:30:34;22.43;;;20.53;;
1010;SDS011;494;48.744;10.106;2023-04-15T21:33:04;22.70;;;20.80;;
1010;SDS011;494;48.744;10.106;2023-04-15T21:35:33;23.77;;;21.77;;
1010;SDS011;494;48.744;10.106;2023-04-15T21:38:04;25.30;;;23.10;;
1010;SDS011;494;48.744;10.106;2023-04-15T21:40:34;29.93;;;26.93;;
1010;SDS011;494;48.744;10.106;2023-04-15T21:43:12;32.20;;;28.80;;
1010;SDS011;494;48.744;10.106;2023-04-15T21:45:46;32.10;;;28.70;;
1010;SDS011;494;48.744;10.106;2023-04-15T21:48:50;28.30;;;25.40;;
1010;SDS011;494;48.744;10.106;2023-04-15T21:51:20;26.20;;;23.60;;
1010;SDS011;494;48.744;10.106;2023-04-15T21:54:00;32.10;;;26.73;;
1010;SDS011;494;48.744;10.106;2023-04-15T21:56:32;29.43;;;26.53;;
1010;SDS011;494;48.744;10.106;2023-04-15T21:59:16;23.10;;;21.00;;
1010;SDS011;494;48.744;10.106;2023-04-15T22:01:50;21.40;;;19.50;;
1010;SDS011;494;48.744;10.106;2023-04-15T22:04:22;20.80;;;19.10;;
1010;SDS011;494;48.744;10.106;2023-04-15T22:06:54;19.30;;;17.70;;
1010;SDS011;494;48.744;10.106;2023-04-15T22:09:30;18.17;;;16.57;;
1010;SDS011;494;48.744;10.106;2023-04-15T22:12:17;19.63;;;17.83;;
1010;SDS011;494;48.744;10.106;2023-04-15T22:14:46;19.50;;;17.80;;
1010;SDS011;494;48.744;10.106;2023-04-15T22:17:26;22.13;;;19.90;;
1010;SDS011;494;48.744;10.106;2023-04-15T22:20:01;21.37;;;19.47;;
1010;SDS011;494;48.744;10.106;2023-04-15T22:22:31;19.57;;;17.87;;
1010;SDS011;494;48.744;10.106;2023-04-15T22:25:09;19.60;;;18.00;;
1010;SDS011;494;48.744;10.106;2023-04-15T22:27:40;20.37;;;18.57;;
1010;SDS011;494;48.744;10.106;2023-04-15T22:30:10;20.50;;;18.80;;
1010;SDS011;494;48.744;10.106;2023-04-15T22:32:45;19.90;;;18.30;;
1010;SDS011;494;48.744;10.106;2023-04-15T22:35:15;18.27;;;16.70;;
1010;SDS011;494;48.744;10.106;2023-04-15T22:37:49;19.87;;;18.20;;
1010;SDS011;494;48.744;10.106;2023-04-15T22:40:22;19.00;;;17.40;;
1010;SDS011;494;48.744;10.106;2023-04-15T22:42:53;21.00;;;19.27;;
1010;SDS011;494;48.744;10.106;2023-04-15T22:45:24;19.77;;;18.03;;
1010;SDS011;494;48.744;10.106;2023-04-15T22:47:56;19.30;;;17.70;;
1010;SDS011;494;48.744;10.106;2023-04-15T22:50:27;19.50;;;17.80;;
1010;SDS011;494;48.744;10.106;2023-04-15T22:52:58;18.77;;;17.17;;
1010;SDS011;494;48.744;10.106;2023-04-15T22:55:29;19.20;;;17.40;;
1010;SDS011;494;48.744;10.106;2023-04-15T22:58:01;20.10;;;18.40;;
1010;SDS011;494;48.744;10.106;2023-04-15T23:00:31;19.50;;;17.80;;
1010;SDS011;494;48.744;10.106;2023-04-15T23:03:06;18.70;;;17.00;;
1010;SDS011;494;48.744;10.106;2023-04-15T23:05:40;18.37;;;16.77;;
1010;SDS011;494;48.744;10.106;2023-04-15T23:08:11;20.03;;;18.23;;
1010;SDS011;494;48.744;10.106;2023-04-15T23:10:40;19.20;;;17.57;;
1010;SDS011;494;48.744;10.106;2023-04-15T23:13:25;20.93;;;18.93;;
1010;SDS011;494;48.744;10.106;2023-04-15T23:15:56;19.93;;;18.23;;
1010;SDS011;494;48.744;10.106;2023-04-15T23:18:28;19.27;;;17.57;;
1010;SDS011;494;48.744;10.106;2023-04-15T23:21:00;19.23;;;17.53;;
1010;SDS011;494;48.744;10.106;2023-04-15T23:23:30;18.50;;;16.83;;
1010;SDS011;494;48.744;10.106;2023-04-15T23:26:00;18.80;;;17.20;;
1010;SDS011;494;48.744;10.106;2023-04-15T23:28:29;18.90;;;17.30;;
1010;SDS011;494;48.744;10.106;2023-04-15T23:31:01;18.40;;;16.80;;
1010;SDS011;494;48.744;10.106;2023-04-15T23:33:34;18.87;;;17.27;;
1010;SDS011;494;48.744;10.106;2023-04-15T23:36:05;18.47;;;16.87;;
1010;SDS011;494;48.744;10.106;2023-04-15T23:38:36;19.00;;;17.40;;
1010;SDS011;494;48.744;10.106;2023-04-15T23:41:04;18.90;;;17.30;;
1010;SDS011;494;48.744;10.106;2023-04-15T23:43:35;18.50;;;16.90;;
1010;SDS011;494;48.744;10.106;2023-04-15T23:46:04;18.70;;;17.10;;
1010;SDS011;494;48.744;10.106;2023-04-15T23:48:35;19.90;;;18.07;;
1010;SDS011;494;48.744;10.106;2023-04-15T23:51:08;23.20;;;21.00;;
1010;SDS011;494;48.744;10.106;2023-04-15T23:53:37;26.23;;;23.53;;
1010;SDS011;494;48.744;10.106;2023-04-15T23:56:05;27.80;;;24.80;;
1010;SDS011;494;48.744;10.106;2023-04-15T23:58:35;24.07;;;21.60;;
